createdAt,value
2019-02-25T00:01:33.344Z,43.23
2019-02-25T00:04:04.232Z,44.70
2019-02-25T00:06:35.577Z,43.97
2019-02-25T00:09:07.259Z,46.20
2019-02-25T00:11:38.755Z,45.23
2019-02-25T00:14:09.422Z,47.43
2019-02-25T00:16:40.766Z,47.70
2019-02-25T00:19:12.432Z,45.73
2019-02-25T00:21:43.109Z,48.10
2019-02-25T00:24:13.826Z,46.37
2019-02-25T00:26:44.549Z,44.43
2019-02-25T00:29:15.197Z,49.73
2019-02-25T00:31:45.913Z,47.73
2019-02-25T00:34:16.688Z,46.27
2019-02-25T00:36:47.422Z,46.47
2019-02-25T00:39:18.224Z,44.87
2019-02-25T00:41:48.985Z,46.77
2019-02-25T00:44:19.726Z,45.20
2019-02-25T00:46:50.485Z,49.23
2019-02-25T00:49:21.120Z,42.00
2019-02-25T00:51:52.773Z,50.87
2019-02-25T00:54:23.437Z,48.43
2019-02-25T00:56:54.129Z,47.70
2019-02-25T00:59:24.789Z,49.73
2019-02-25T01:01:56.968Z,49.70
2019-02-25T01:04:27.685Z,41.93
2019-02-25T01:06:58.592Z,44.73
2019-02-25T01:09:29.377Z,47.93
2019-02-25T01:12:00.112Z,46.00
2019-02-25T01:14:30.806Z,51.03
2019-02-25T01:17:01.574Z,47.23
2019-02-25T01:19:32.257Z,46.37
2019-02-25T01:22:03.023Z,45.50
2019-02-25T01:24:33.768Z,48.73
2019-02-25T01:27:04.510Z,46.43
2019-02-25T01:29:35.259Z,51.30
2019-02-25T01:32:06.045Z,49.53
2019-02-25T01:34:39.810Z,46.13
2019-02-25T01:37:10.701Z,43.23
2019-02-25T01:39:41.489Z,48.27
2019-02-25T01:42:13.754Z,46.03
2019-02-25T01:44:44.486Z,41.97
2019-02-25T01:47:15.227Z,43.23
2019-02-25T01:49:45.938Z,45.13
2019-02-25T02:11:03.511Z,41.37
2019-02-25T02:13:34.272Z,36.13
2019-02-25T02:16:05.073Z,34.70
2019-02-25T02:18:36.067Z,40.03
2019-02-25T02:21:07.068Z,43.87
2019-02-25T02:23:37.813Z,40.07
2019-02-25T02:26:08.618Z,40.77
2019-02-25T02:28:39.392Z,41.50
2019-02-25T02:31:10.224Z,39.43
2019-02-25T02:33:40.985Z,39.67
2019-02-25T02:36:11.909Z,40.03
2019-02-25T02:38:42.790Z,40.03
2019-02-25T02:41:13.573Z,40.17
2019-02-25T02:43:44.251Z,38.90
2019-02-25T02:46:50.088Z,38.90
2019-02-25T02:49:20.818Z,36.90
2019-02-25T02:51:51.585Z,40.60
2019-02-25T02:54:22.321Z,37.80
2019-02-25T02:56:53.099Z,37.57
2019-02-25T02:59:23.837Z,40.57
2019-02-25T03:01:54.567Z,36.83
2019-02-25T03:04:26.279Z,37.80
2019-02-25T03:06:58.498Z,37.40
2019-02-25T03:09:29.193Z,37.53
2019-02-25T03:11:59.944Z,34.33
2019-02-25T03:14:30.729Z,34.13
2019-02-25T03:17:01.394Z,40.20
2019-02-25T03:19:32.135Z,35.70
2019-02-25T03:22:02.854Z,37.43
2019-02-25T03:24:33.537Z,35.43
2019-02-25T03:27:04.276Z,31.90
2019-02-25T03:29:34.980Z,35.43
2019-02-25T03:32:05.895Z,34.40
2019-02-25T03:34:36.710Z,34.30
2019-02-25T03:37:07.619Z,38.13
2019-02-25T03:39:38.526Z,34.23
2019-02-25T03:42:09.367Z,37.40
2019-02-25T03:44:40.058Z,38.00
2019-02-25T03:47:10.993Z,38.73
2019-02-25T03:49:41.746Z,38.87
2019-02-25T03:52:12.491Z,32.47
2019-02-25T03:54:43.263Z,37.77
2019-02-25T03:57:14.029Z,34.90
2019-02-25T03:59:44.754Z,34.63
2019-02-25T04:02:15.478Z,35.27
2019-02-25T04:04:47.835Z,35.80
2019-02-25T04:07:18.710Z,34.97
2019-02-25T04:09:49.486Z,34.70
2019-02-25T04:12:20.295Z,26.93
2019-02-25T04:14:51.038Z,36.00
2019-02-25T04:17:22.363Z,31.10
2019-02-25T04:19:53.081Z,30.03
2019-02-25T04:22:23.808Z,34.83
2019-02-25T04:24:54.487Z,34.87
2019-02-25T04:27:25.160Z,31.97
2019-02-25T04:29:55.960Z,30.60
2019-02-25T04:32:27.140Z,32.07
2019-02-25T04:34:57.978Z,34.13
2019-02-25T04:37:29.769Z,31.13
2019-02-25T04:40:00.603Z,32.20
2019-02-25T04:42:31.406Z,33.10
2019-02-25T04:45:02.377Z,29.90
2019-02-25T04:47:33.172Z,32.37
2019-02-25T04:50:03.934Z,31.53
2019-02-25T04:52:34.616Z,38.00
2019-02-25T04:55:05.715Z,28.93
2019-02-25T04:57:36.437Z,34.80
2019-02-25T05:00:12.125Z,36.27
2019-02-25T05:02:43.104Z,34.23
2019-02-25T05:05:13.886Z,36.60
2019-02-25T05:07:44.635Z,31.57
2019-02-25T05:10:16.706Z,32.03
2019-02-25T05:12:58.888Z,31.97
2019-02-25T05:15:31.626Z,33.87
2019-02-25T05:18:02.373Z,32.73
2019-02-25T05:20:33.116Z,29.83
2019-02-25T05:23:03.885Z,30.80
2019-02-25T05:25:34.580Z,35.33
2019-02-25T05:28:05.278Z,35.63
2019-02-25T05:30:36.113Z,34.97
2019-02-25T05:33:06.854Z,35.90
2019-02-25T05:35:37.666Z,32.93
2019-02-25T05:38:08.436Z,36.10
2019-02-25T05:40:39.220Z,32.57
2019-02-25T05:43:09.936Z,36.40
2019-02-25T05:45:40.716Z,35.03
2019-02-25T05:48:11.530Z,32.83
2019-02-25T05:50:42.307Z,33.23
2019-02-25T05:53:13.062Z,29.43
2019-02-25T05:55:43.914Z,30.90
2019-02-25T05:58:14.629Z,29.90
2019-02-25T06:00:45.375Z,33.50
2019-02-25T06:03:16.099Z,34.63
2019-02-25T06:05:46.855Z,33.27
2019-02-25T06:08:17.529Z,29.80
2019-02-25T06:10:48.201Z,33.30
2019-02-25T06:13:18.986Z,31.77
2019-02-25T06:15:51.490Z,32.33
2019-02-25T06:18:22.364Z,32.80
2019-02-25T06:20:53.148Z,33.33
2019-02-25T06:23:23.913Z,34.90
2019-02-25T06:25:54.660Z,29.87
2019-02-25T06:28:25.367Z,35.13
2019-02-25T06:30:56.087Z,34.37
2019-02-25T06:33:26.914Z,35.23
2019-02-25T06:35:57.648Z,34.20
2019-02-25T06:38:28.467Z,34.53
2019-02-25T06:40:59.207Z,33.73
2019-02-25T06:43:30.058Z,37.53
2019-02-25T06:46:00.782Z,34.83
2019-02-25T06:48:31.534Z,34.10
2019-02-25T06:51:02.280Z,30.70
2019-02-25T06:53:33.026Z,32.40
2019-02-25T06:56:04.239Z,32.60
2019-02-25T06:58:35.011Z,34.87
2019-02-25T07:01:05.694Z,31.50
2019-02-25T07:03:36.490Z,35.37
2019-02-25T07:06:15.771Z,36.10
2019-02-25T07:08:52.271Z,33.27
2019-02-25T07:11:51.430Z,33.10
2019-02-25T07:14:41.155Z,31.80
2019-02-25T07:17:23.881Z,34.53
2019-02-25T07:20:16.351Z,35.77
2019-02-25T07:23:05.515Z,33.70
2019-02-25T07:25:55.802Z,35.10
2019-02-25T07:28:44.201Z,33.73
2019-02-25T07:31:33.914Z,35.57
2019-02-25T07:34:32.202Z,30.73
2019-02-25T07:37:23.757Z,36.00
2019-02-25T07:40:23.325Z,35.27
2019-02-25T07:43:11.387Z,38.03
2019-02-25T07:45:58.985Z,40.43
2019-02-25T07:48:51.311Z,40.67
2019-02-25T07:51:52.787Z,37.67
2019-02-25T07:54:40.996Z,40.03
2019-02-25T07:57:33.235Z,43.80
2019-02-25T08:00:13.138Z,31.90
2019-02-25T08:02:55.831Z,37.73
2019-02-25T08:05:44.152Z,39.50
2019-02-25T08:08:25.841Z,41.17
2019-02-25T08:11:08.373Z,36.27
2019-02-25T08:13:55.189Z,36.33
2019-02-25T08:16:44.901Z,44.73
2019-02-25T08:19:30.601Z,33.03
2019-02-25T08:22:38.492Z,32.73
2019-02-25T08:25:30.974Z,33.03
2019-02-25T08:28:20.650Z,39.93
2019-02-25T08:31:03.853Z,32.47
2019-02-25T08:33:59.742Z,36.77
2019-02-25T08:37:19.889Z,29.83
2019-02-25T08:40:13.342Z,31.30
2019-02-25T08:42:51.755Z,26.20
2019-02-25T08:45:28.664Z,29.20
2019-02-25T08:48:12.217Z,25.33
2019-02-25T08:50:43.022Z,24.87
2019-02-25T08:53:13.950Z,25.90
2019-02-25T08:55:44.711Z,23.40
2019-02-25T08:58:16.950Z,24.23
2019-02-25T09:00:47.666Z,23.40
2019-02-25T09:03:19.902Z,26.93
2019-02-25T09:05:50.662Z,20.03
2019-02-25T09:08:21.496Z,24.00
2019-02-25T09:10:52.283Z,26.00
2019-02-25T09:13:24.668Z,21.60
2019-02-25T09:15:55.839Z,20.77
2019-02-25T09:18:26.718Z,22.20
2019-02-25T09:20:57.509Z,20.60
2019-02-25T09:23:28.484Z,18.90
2019-02-25T09:25:59.393Z,19.10
2019-02-25T09:28:30.480Z,19.20
2019-02-25T09:31:02.379Z,19.50
2019-02-25T09:33:33.558Z,17.40
2019-02-25T09:36:04.229Z,18.40
2019-02-25T09:38:36.908Z,15.87
2019-02-25T09:41:07.635Z,15.73
2019-02-25T09:43:38.794Z,17.20
2019-02-25T09:46:09.694Z,17.20
2019-02-25T09:48:42.087Z,17.30
2019-02-25T09:51:13.814Z,14.87
2019-02-25T09:53:44.567Z,16.93
2019-02-25T09:56:15.572Z,19.70
2019-02-25T09:58:46.529Z,17.83
2019-02-25T10:01:17.285Z,15.03
2019-02-25T10:03:48.139Z,18.27
2019-02-25T10:06:18.970Z,16.77
2019-02-25T10:08:50.940Z,18.20
2019-02-25T10:11:21.758Z,16.13
2019-02-25T10:13:52.934Z,22.47
2019-02-25T10:16:23.840Z,17.00
2019-02-25T10:18:54.653Z,16.63
2019-02-25T10:21:25.613Z,21.70
2019-02-25T10:23:56.345Z,14.20
2019-02-25T10:26:27.242Z,14.77
2019-02-25T10:28:58.034Z,13.53
2019-02-25T10:31:28.827Z,13.13
2019-02-25T10:33:59.590Z,11.17
2019-02-25T10:36:30.480Z,11.93
2019-02-25T10:39:01.413Z,11.00
2019-02-25T10:41:33.902Z,12.07
2019-02-25T10:44:06.360Z,12.30
2019-02-25T10:46:39.013Z,14.77
2019-02-25T10:49:11.589Z,11.97
2019-02-25T10:51:43.959Z,12.53
2019-02-25T10:54:16.970Z,12.40
2019-02-25T10:56:51.634Z,13.80
2019-02-25T10:59:23.588Z,12.70
2019-02-25T11:01:54.627Z,12.63
2019-02-25T11:04:26.241Z,12.27
2019-02-25T11:06:58.538Z,11.53
2019-02-25T11:09:50.388Z,11.47
2019-02-25T11:12:21.604Z,11.90
2019-02-25T11:14:53.598Z,11.37
2019-02-25T11:17:24.651Z,13.50
2019-02-25T11:19:56.685Z,13.10
2019-02-25T11:22:57.809Z,11.27
2019-02-25T11:25:32.709Z,12.17
2019-02-25T11:28:05.377Z,11.37
2019-02-25T11:30:36.062Z,12.47
2019-02-25T11:33:06.980Z,11.13
2019-02-25T11:35:39.272Z,12.10
2019-02-25T11:38:10.794Z,11.20
2019-02-25T11:40:41.536Z,12.87
2019-02-25T11:43:13.230Z,15.00
2019-02-25T11:45:44.889Z,10.53
2019-02-25T11:48:15.798Z,10.70
2019-02-25T11:50:46.877Z,8.90
2019-02-25T11:53:17.739Z,8.33
2019-02-25T11:55:48.531Z,9.07
2019-02-25T11:58:19.288Z,8.87
2019-02-25T12:00:50.447Z,11.40
2019-02-25T12:03:22.403Z,7.23
2019-02-25T12:05:54.908Z,10.17
2019-02-25T12:08:26.020Z,8.97
2019-02-25T12:10:56.836Z,9.90
2019-02-25T12:13:28.626Z,6.20
2019-02-25T12:15:59.491Z,5.97
2019-02-25T12:18:30.241Z,6.23
2019-02-25T12:21:01.003Z,7.10
2019-02-25T12:23:32.147Z,8.47
2019-02-25T12:26:04.083Z,7.90
2019-02-25T12:28:34.883Z,6.27
2019-02-25T12:31:05.542Z,8.47
2019-02-25T12:33:55.753Z,5.80
2019-02-25T12:36:26.411Z,5.60
2019-02-25T12:38:58.589Z,6.00
2019-02-25T12:41:29.436Z,6.30
2019-02-25T12:44:00.223Z,8.37
2019-02-25T12:46:30.955Z,6.67
2019-02-25T12:49:02.043Z,7.07
2019-02-25T12:51:33.386Z,8.13
2019-02-25T12:54:34.079Z,6.07
2019-02-25T12:57:06.450Z,7.63
2019-02-25T12:59:38.296Z,7.03
2019-02-25T13:02:09.102Z,8.50
2019-02-25T13:04:40.026Z,7.13
2019-02-25T13:07:10.842Z,7.57
2019-02-25T13:09:41.604Z,7.07
2019-02-25T13:12:12.346Z,5.37
2019-02-25T13:14:43.266Z,5.60
2019-02-25T13:17:14.099Z,6.53
2019-02-25T13:19:45.849Z,5.63
2019-02-25T13:22:16.748Z,5.70
2019-02-25T13:24:48.344Z,6.13
2019-02-25T13:27:19.180Z,6.83
2019-02-25T13:29:50.247Z,6.00
2019-02-25T13:32:21.212Z,5.73
2019-02-25T13:34:52.187Z,5.03
2019-02-25T13:37:22.919Z,6.23
2019-02-25T13:39:53.813Z,4.13
2019-02-25T13:42:24.615Z,4.07
2019-02-25T13:44:55.437Z,3.17
2019-02-25T13:47:26.347Z,5.03
2019-02-25T13:49:57.231Z,5.23
2019-02-25T13:52:28.025Z,5.97
2019-02-25T13:54:58.749Z,5.17
2019-02-25T13:57:29.550Z,5.03
2019-02-25T14:00:00.667Z,7.00
2019-02-25T14:02:31.481Z,3.97
2019-02-25T14:05:02.499Z,5.63
2019-02-25T14:07:34.299Z,6.50
2019-02-25T14:10:07.649Z,5.33
2019-02-25T14:12:38.476Z,5.67
2019-02-25T14:15:09.561Z,4.80
2019-02-25T14:17:40.816Z,8.43
2019-02-25T14:20:13.794Z,5.93
2019-02-25T14:22:44.808Z,6.97
2019-02-25T14:25:19.698Z,6.13
2019-02-25T14:27:49.702Z,5.67
2019-02-25T14:30:22.224Z,4.57
2019-02-25T14:32:53.676Z,5.27
2019-02-25T14:35:28.554Z,5.10
2019-02-25T14:38:04.175Z,15.60
2019-02-25T14:40:32.772Z,7.83
2019-02-25T14:43:05.901Z,5.57
2019-02-25T14:45:36.028Z,5.97
2019-02-25T14:48:08.271Z,7.13
2019-02-25T14:50:40.118Z,6.70
2019-02-25T14:53:14.131Z,8.77
2019-02-25T14:55:46.945Z,7.80
2019-02-25T14:58:17.555Z,8.60
2019-02-25T15:00:49.973Z,7.00
2019-02-25T15:03:22.559Z,9.10
2019-02-25T15:05:56.984Z,5.93
2019-02-25T15:08:28.492Z,7.47
2019-02-25T15:11:02.004Z,7.53
2019-02-25T15:13:33.250Z,7.67
2019-02-25T15:16:05.086Z,9.30
2019-02-25T15:18:36.054Z,7.40
2019-02-25T15:21:09.141Z,5.43
2019-02-25T15:23:40.110Z,10.23
2019-02-25T15:26:11.047Z,7.20
2019-02-25T15:28:42.055Z,5.50
2019-02-25T15:31:14.140Z,5.83
2019-02-25T15:33:46.208Z,6.13
2019-02-25T15:36:17.881Z,9.03
2019-02-25T15:38:49.699Z,9.43
2019-02-25T15:41:20.845Z,10.67
2019-02-25T15:43:51.921Z,11.50
2019-02-25T15:46:24.261Z,13.70
2019-02-25T15:48:56.099Z,12.70
2019-02-25T15:51:28.457Z,10.37
2019-02-25T15:53:59.902Z,12.87
2019-02-25T15:56:30.746Z,10.37
2019-02-25T15:59:01.585Z,6.83
2019-02-25T16:01:32.483Z,5.77
2019-02-25T16:04:04.778Z,7.47
2019-02-25T16:06:37.684Z,9.13
2019-02-25T16:09:10.004Z,6.70
2019-02-25T16:11:45.561Z,4.77
2019-02-25T16:14:16.477Z,4.93
2019-02-25T16:16:47.533Z,5.53
2019-02-25T16:19:18.966Z,6.80
2019-02-25T16:21:50.137Z,6.27
2019-02-25T16:24:20.849Z,8.03
2019-02-25T16:26:53.817Z,8.60
2019-02-25T16:29:24.475Z,7.57
2019-02-25T16:31:57.496Z,11.10
2019-02-25T16:34:27.843Z,8.30
2019-02-25T16:37:00.470Z,11.53
2019-02-25T16:39:33.317Z,7.93
2019-02-25T16:42:04.116Z,9.57
2019-02-25T16:44:35.076Z,10.97
2019-02-25T16:47:07.897Z,11.87
2019-02-25T16:49:38.858Z,14.07
2019-02-25T16:52:09.931Z,15.07
2019-02-25T16:54:40.842Z,11.50
2019-02-25T16:57:11.874Z,14.70
2019-02-25T17:07:34.674Z,12.40
2019-02-25T17:10:28.918Z,12.67
2019-02-25T17:13:14.834Z,14.37
2019-02-25T17:15:46.383Z,12.67
2019-02-25T17:18:17.735Z,14.23
2019-02-25T17:20:50.308Z,14.10
2019-02-25T17:23:22.784Z,15.70
2019-02-25T17:25:54.177Z,15.97
2019-02-25T17:28:27.391Z,13.77
2019-02-25T17:30:58.178Z,14.77
2019-02-25T17:33:30.480Z,14.90
2019-02-25T17:36:01.513Z,15.37
2019-02-25T17:38:32.699Z,15.17
2019-02-25T17:41:05.957Z,16.03
2019-02-25T17:43:36.855Z,20.80
2019-02-25T17:46:09.910Z,15.57
2019-02-25T17:48:42.007Z,13.50
2019-02-25T17:51:12.923Z,15.53
2019-02-25T17:53:45.930Z,15.20
2019-02-25T17:56:18.106Z,14.53
2019-02-25T17:58:49.223Z,15.97
2019-02-25T18:01:21.983Z,14.50
2019-02-25T18:03:52.921Z,19.13
2019-02-25T18:06:29.509Z,19.07
2019-02-25T18:08:57.696Z,18.07
2019-02-25T18:11:29.143Z,15.50
2019-02-25T18:14:01.379Z,19.17
2019-02-25T18:16:35.374Z,20.20
2019-02-25T18:19:06.220Z,19.17
2019-02-25T18:21:38.096Z,20.60
2019-02-25T18:24:10.013Z,19.20
2019-02-25T18:26:41.328Z,24.70
2019-02-25T18:29:16.026Z,21.23
2019-02-25T18:31:46.294Z,18.87
2019-02-25T18:34:18.359Z,20.47
2019-02-25T18:36:51.035Z,18.13
2019-02-25T18:39:23.197Z,20.03
2019-02-25T18:41:55.527Z,20.43
2019-02-25T18:44:29.854Z,19.57
2019-02-25T18:47:01.530Z,18.40
2019-02-25T18:49:34.791Z,20.60
2019-02-25T18:52:05.593Z,19.87
2019-02-25T18:54:39.096Z,21.07
2019-02-25T18:57:22.638Z,21.07
2019-02-25T18:59:59.244Z,20.43
2019-02-25T19:02:33.310Z,21.70
2019-02-25T19:05:07.148Z,21.90
2019-02-25T19:07:41.949Z,21.20
2019-02-25T19:10:16.618Z,20.77
2019-02-25T19:12:49.649Z,23.10
2019-02-25T19:15:21.926Z,24.43
2019-02-25T19:17:54.380Z,17.97
2019-02-25T19:20:25.707Z,21.60
2019-02-25T19:23:00.434Z,22.20
2019-02-25T19:25:29.849Z,23.47
2019-02-25T19:28:01.660Z,21.70
2019-02-25T19:30:34.458Z,19.07
2019-02-25T19:33:11.039Z,21.17
2019-02-25T19:35:40.711Z,21.03
2019-02-25T19:38:14.672Z,22.37
2019-02-25T19:40:50.365Z,27.50
2019-02-25T19:43:19.279Z,21.40
2019-02-25T19:45:51.220Z,22.93
2019-02-25T19:48:26.243Z,21.07
2019-02-25T19:50:56.126Z,21.93
2019-02-25T19:53:31.394Z,25.13
2019-02-25T19:56:03.139Z,20.50
2019-02-25T19:58:36.038Z,23.27
2019-02-25T20:01:09.012Z,22.13
2019-02-25T20:03:42.752Z,24.17
2019-02-25T20:06:15.944Z,22.50
2019-02-25T20:08:46.919Z,19.53
2019-02-25T20:11:18.770Z,26.03
2019-02-25T20:13:49.715Z,19.97
2019-02-25T20:16:22.957Z,19.83
2019-02-25T20:18:56.054Z,23.67
2019-02-25T20:21:28.772Z,21.87
2019-02-25T20:23:59.694Z,22.87
2019-02-25T20:26:32.557Z,24.30
2019-02-25T20:29:04.143Z,28.23
2019-02-25T20:31:36.596Z,27.33
2019-02-25T20:34:08.898Z,23.77
2019-02-25T20:36:39.932Z,22.93
2019-02-25T20:39:10.888Z,25.10
2019-02-25T20:41:43.294Z,26.13
2019-02-25T20:44:14.439Z,26.80
2019-02-25T20:46:48.664Z,31.07
2019-02-25T20:49:20.373Z,24.60
2019-02-25T20:51:52.334Z,22.90
2019-02-25T20:54:23.675Z,30.37
2019-02-25T20:56:55.460Z,30.90
2019-02-25T20:59:28.072Z,26.87
2019-02-25T21:01:58.915Z,25.63
2019-02-25T21:04:29.654Z,28.87
2019-02-25T21:07:02.075Z,26.50
2019-02-25T21:09:35.738Z,27.77
2019-02-25T21:12:08.203Z,26.63
2019-02-25T21:14:41.158Z,26.23
2019-02-25T21:17:13.628Z,31.53
2019-02-25T21:19:44.499Z,29.40
2019-02-25T21:22:15.210Z,29.03
2019-02-25T21:24:46.902Z,28.30
2019-02-25T21:27:17.685Z,27.93
2019-02-25T21:29:48.523Z,29.57
2019-02-25T21:32:19.883Z,29.37
2019-02-25T21:34:52.805Z,31.00
2019-02-25T21:37:25.005Z,31.97
2019-02-25T21:39:58.334Z,27.43
2019-02-25T21:42:30.830Z,30.90
2019-02-25T21:45:02.357Z,26.73
2019-02-25T21:47:35.081Z,34.60
2019-02-25T21:50:09.055Z,32.37
2019-02-25T21:52:41.177Z,29.27
2019-02-25T21:55:11.902Z,30.77
2019-02-25T21:57:42.756Z,28.57
2019-02-25T22:00:15.823Z,28.57
2019-02-25T22:02:48.262Z,29.27
2019-02-25T22:05:21.195Z,30.70
2019-02-25T22:07:54.427Z,25.93
2019-02-25T22:10:24.575Z,28.53
2019-02-25T22:12:55.264Z,30.97
2019-02-25T22:15:25.959Z,29.73
2019-02-25T22:17:56.765Z,31.03
2019-02-25T22:20:27.420Z,28.50
2019-02-25T22:22:59.135Z,30.57
2019-02-25T22:25:30.559Z,30.30
2019-02-25T22:28:03.385Z,28.47
2019-02-25T22:30:36.286Z,30.97
2019-02-25T22:33:12.731Z,29.67
2019-02-25T22:35:40.573Z,26.27
2019-02-25T22:38:12.944Z,28.83
2019-02-25T22:40:43.732Z,26.47
2019-02-25T22:43:16.298Z,32.53
2019-02-25T22:45:46.941Z,28.63
2019-02-25T22:48:19.080Z,28.30
2019-02-25T22:50:53.254Z,32.00
2019-02-25T22:53:22.601Z,29.63
2019-02-25T22:55:54.749Z,29.37
2019-02-25T22:58:25.516Z,29.00
2019-02-25T23:01:05.907Z,27.57
2019-02-25T23:03:40.943Z,34.73
2019-02-25T23:06:13.071Z,35.20
2019-02-25T23:08:48.356Z,33.60
2019-02-25T23:11:19.819Z,28.20
2019-02-25T23:13:50.383Z,29.70
2019-02-25T23:16:24.941Z,31.50
2019-02-25T23:18:54.734Z,31.20
2019-02-25T23:21:26.965Z,30.83
2019-02-25T23:23:58.693Z,32.70
2019-02-25T23:26:30.261Z,33.47
2019-02-25T23:29:00.993Z,31.57
2019-02-25T23:31:31.723Z,26.90
2019-02-25T23:34:02.490Z,32.57
2019-02-25T23:36:33.187Z,31.80
2019-02-25T23:39:05.254Z,31.03
2019-02-25T23:41:39.032Z,37.00
2019-02-25T23:44:12.652Z,30.63
2019-02-25T23:46:42.746Z,31.77
2019-02-25T23:49:13.487Z,28.00
2019-02-25T23:51:45.783Z,33.23
2019-02-25T23:54:18.301Z,29.07
2019-02-25T23:56:50.364Z,31.20
2019-02-25T23:59:23.999Z,30.17
